MUHG/HOG METAR and TAF weather

Enter ICAO airport designator
Station Type Date Time Source
MUHG METAR 2020/09/21 04:50 UTC NOAA

MUHG 210450Z 05004KT 9000 FEW045 24/23 Q1013


Station Type Date Time Source
MUHG Decoded METAR 2020/09/21 04:50 UTC NOAA

Holguin Civ / Mil , Cuba (MUHG) 20-47N 076-19W
Sep 21, 2020 - 12:50 AM EDT / 2020.09.21 0450 UTC
Wind: from the NE (050 degrees) at 5 MPH (4 KT):0
Visibility: 5 mile(s):0
Sky conditions: mostly clear
Temperature: 75 F (24 C)
Dew Point: 73 F (23 C)
Relative Humidity: 94%
Pressure (altimeter): 29.91 in. Hg (1013 hPa)
ob: MUHG 210450Z 05004KT 9000 FEW045 24/23 Q1013
cycle: 5

Station Type Date Time Source
MUHG TAF 2020/09/21 06:03 UTC NOAA

TAF TAF MUHG 210500Z 2106/2206 VRB03KT 9000 FEW050
TEMPO 2108/2113 5000 BR
BECMG 2115/2118 06009KT SCT030
BECMG 2201/2204 VRB03KT FEW050

Example: see airport list